sensor_id;sensor_type;location;lat;lon;timestamp;P1;durP1;ratioP1;P2;durP2;ratioP2
26600;SDS011;14241;49.260;10.496;2022-09-27T00:01:03;2.70;;;0.95;;
26600;SDS011;14241;49.260;10.496;2022-09-27T00:03:28;2.38;;;0.80;;
26600;SDS011;14241;49.260;10.496;2022-09-27T00:06:07;1.30;;;1.00;;
26600;SDS011;14241;49.260;10.496;2022-09-27T00:08:33;1.52;;;0.90;;
26600;SDS011;14241;49.260;10.496;2022-09-27T00:11:00;4.30;;;1.20;;
26600;SDS011;14241;49.260;10.496;2022-09-27T00:13:25;1.23;;;0.80;;
26600;SDS011;14241;49.260;10.496;2022-09-27T00:15:57;1.05;;;0.90;;
26600;SDS011;14241;49.260;10.496;2022-09-27T00:18:23;2.22;;;0.80;;
26600;SDS011;14241;49.260;10.496;2022-09-27T00:20:48;1.65;;;0.80;;
26600;SDS011;14241;49.260;10.496;2022-09-27T00:23:15;2.13;;;0.80;;
26600;SDS011;14241;49.260;10.496;2022-09-27T00:25:40;2.17;;;0.90;;
26600;SDS011;14241;49.260;10.496;2022-09-27T00:28:05;1.02;;;0.60;;
26600;SDS011;14241;49.260;10.496;2022-09-27T00:30:32;0.80;;;0.70;;
26600;SDS011;14241;49.260;10.496;2022-09-27T00:32:57;0.90;;;0.68;;
26600;SDS011;14241;49.260;10.496;2022-09-27T00:35:23;1.13;;;0.93;;
26600;SDS011;14241;49.260;10.496;2022-09-27T00:37:48;1.45;;;0.85;;
26600;SDS011;14241;49.260;10.496;2022-09-27T00:40:14;0.82;;;0.75;;
26600;SDS011;14241;49.260;10.496;2022-09-27T00:42:39;0.50;;;0.50;;
26600;SDS011;14241;49.260;10.496;2022-09-27T00:45:06;0.95;;;0.63;;
26600;SDS011;14241;49.260;10.496;2022-09-27T00:47:36;0.98;;;0.70;;
26600;SDS011;14241;49.260;10.496;2022-09-27T00:50:08;1.77;;;0.80;;
26600;SDS011;14241;49.260;10.496;2022-09-27T00:55:02;0.80;;;0.80;;
26600;SDS011;14241;49.260;10.496;2022-09-27T00:57:28;3.83;;;0.60;;
26600;SDS011;14241;49.260;10.496;2022-09-27T01:00:01;0.85;;;0.60;;
26600;SDS011;14241;49.260;10.496;2022-09-27T01:02:27;0.63;;;0.63;;
26600;SDS011;14241;49.260;10.496;2022-09-27T01:04:53;1.42;;;0.60;;
26600;SDS011;14241;49.260;10.496;2022-09-27T01:07:19;1.85;;;0.60;;
26600;SDS011;14241;49.260;10.496;2022-09-27T01:09:44;1.05;;;0.60;;
26600;SDS011;14241;49.260;10.496;2022-09-27T01:17:28;0.65;;;0.60;;
26600;SDS011;14241;49.260;10.496;2022-09-27T01:22:33;5.32;;;1.00;;
26600;SDS011;14241;49.260;10.496;2022-09-27T01:30:33;1.15;;;0.70;;
26600;SDS011;14241;49.260;10.496;2022-09-27T01:35:36;2.70;;;0.65;;
26600;SDS011;14241;49.260;10.496;2022-09-27T01:41:02;1.65;;;0.77;;
26600;SDS011;14241;49.260;10.496;2022-09-27T01:43:35;2.47;;;1.00;;
26600;SDS011;14241;49.260;10.496;2022-09-27T01:46:12;1.50;;;0.93;;
26600;SDS011;14241;49.260;10.496;2022-09-27T01:48:40;2.28;;;0.88;;
26600;SDS011;14241;49.260;10.496;2022-09-27T01:51:11;2.17;;;0.88;;
26600;SDS011;14241;49.260;10.496;2022-09-27T01:53:40;1.20;;;1.00;;
26600;SDS011;14241;49.260;10.496;2022-09-27T01:56:07;1.92;;;1.20;;
26600;SDS011;14241;49.260;10.496;2022-09-27T01:58:41;1.42;;;1.20;;
26600;SDS011;14241;49.260;10.496;2022-09-27T02:01:07;1.20;;;0.73;;
26600;SDS011;14241;49.260;10.496;2022-09-27T02:03:37;1.80;;;1.13;;
26600;SDS011;14241;49.260;10.496;2022-09-27T02:06:11;2.38;;;1.60;;
26600;SDS011;14241;49.260;10.496;2022-09-27T02:11:03;4.65;;;1.08;;
26600;SDS011;14241;49.260;10.496;2022-09-27T02:13:42;0.88;;;0.60;;
26600;SDS011;14241;49.260;10.496;2022-09-27T02:21:12;1.23;;;0.63;;
26600;SDS011;14241;49.260;10.496;2022-09-27T02:23:40;2.47;;;1.02;;
26600;SDS011;14241;49.260;10.496;2022-09-27T02:28:40;4.40;;;1.00;;
26600;SDS011;14241;49.260;10.496;2022-09-27T02:31:06;2.63;;;0.70;;
26600;SDS011;14241;49.260;10.496;2022-09-27T02:33:36;0.73;;;0.60;;
26600;SDS011;14241;49.260;10.496;2022-09-27T02:36:02;1.23;;;0.60;;
26600;SDS011;14241;49.260;10.496;2022-09-27T02:38:28;0.88;;;0.65;;
26600;SDS011;14241;49.260;10.496;2022-09-27T02:40:53;3.22;;;0.80;;
26600;SDS011;14241;49.260;10.496;2022-09-27T02:43:19;1.85;;;0.60;;
26600;SDS011;14241;49.260;10.496;2022-09-27T03:00:51;0.93;;;0.87;;
26600;SDS011;14241;49.260;10.496;2022-09-27T03:03:22;0.63;;;0.63;;
26600;SDS011;14241;49.260;10.496;2022-09-27T03:05:52;1.58;;;0.80;;
26600;SDS011;14241;49.260;10.496;2022-09-27T03:08:18;0.70;;;0.57;;
26600;SDS011;14241;49.260;10.496;2022-09-27T03:10:44;0.50;;;0.50;;
26600;SDS011;14241;49.260;10.496;2022-09-27T03:13:09;0.60;;;0.60;;
26600;SDS011;14241;49.260;10.496;2022-09-27T03:15:34;2.10;;;0.60;;
26600;SDS011;14241;49.260;10.496;2022-09-27T03:18:00;0.93;;;0.52;;
26600;SDS011;14241;49.260;10.496;2022-09-27T03:20:25;2.28;;;0.70;;
26600;SDS011;14241;49.260;10.496;2022-09-27T03:22:51;1.00;;;0.45;;
26600;SDS011;14241;49.260;10.496;2022-09-27T03:25:16;1.17;;;0.47;;
26600;SDS011;14241;49.260;10.496;2022-09-27T03:27:42;0.40;;;0.40;;
26600;SDS011;14241;49.260;10.496;2022-09-27T03:30:08;0.68;;;0.50;;
26600;SDS011;14241;49.260;10.496;2022-09-27T03:32:34;0.63;;;0.38;;
26600;SDS011;14241;49.260;10.496;2022-09-27T03:34:59;0.60;;;0.43;;
26600;SDS011;14241;49.260;10.496;2022-09-27T03:37:24;1.27;;;0.50;;
26600;SDS011;14241;49.260;10.496;2022-09-27T03:39:53;0.50;;;0.50;;
26600;SDS011;14241;49.260;10.496;2022-09-27T03:42:18;0.57;;;0.50;;
26600;SDS011;14241;49.260;10.496;2022-09-27T03:44:43;0.50;;;0.40;;
26600;SDS011;14241;49.260;10.496;2022-09-27T03:47:09;0.88;;;0.40;;
26600;SDS011;14241;49.260;10.496;2022-09-27T03:49:34;2.20;;;0.63;;
26600;SDS011;14241;49.260;10.496;2022-09-27T03:51:59;1.17;;;0.45;;
26600;SDS011;14241;49.260;10.496;2022-09-27T03:54:25;2.47;;;0.40;;
26600;SDS011;14241;49.260;10.496;2022-09-27T03:56:50;1.23;;;0.60;;
26600;SDS011;14241;49.260;10.496;2022-09-27T03:59:16;0.43;;;0.43;;
26600;SDS011;14241;49.260;10.496;2022-09-27T04:01:41;1.75;;;0.50;;
26600;SDS011;14241;49.260;10.496;2022-09-27T04:04:08;1.85;;;0.52;;
26600;SDS011;14241;49.260;10.496;2022-09-27T04:06:34;1.45;;;0.82;;
26600;SDS011;14241;49.260;10.496;2022-09-27T04:09:00;2.05;;;0.82;;
26600;SDS011;14241;49.260;10.496;2022-09-27T04:11:25;3.00;;;0.80;;
26600;SDS011;14241;49.260;10.496;2022-09-27T04:13:50;5.17;;;0.80;;
26600;SDS011;14241;49.260;10.496;2022-09-27T04:16:15;5.22;;;0.77;;
26600;SDS011;14241;49.260;10.496;2022-09-27T04:18:41;3.08;;;1.00;;
26600;SDS011;14241;49.260;10.496;2022-09-27T04:21:06;5.82;;;1.00;;
26600;SDS011;14241;49.260;10.496;2022-09-27T04:23:32;2.17;;;0.80;;
26600;SDS011;14241;49.260;10.496;2022-09-27T04:25:57;3.13;;;1.10;;
26600;SDS011;14241;49.260;10.496;2022-09-27T04:28:23;2.38;;;1.00;;
26600;SDS011;14241;49.260;10.496;2022-09-27T04:30:48;2.85;;;1.08;;
26600;SDS011;14241;49.260;10.496;2022-09-27T04:33:13;3.30;;;1.35;;
26600;SDS011;14241;49.260;10.496;2022-09-27T04:35:39;1.88;;;1.05;;
26600;SDS011;14241;49.260;10.496;2022-09-27T04:38:23;1.83;;;1.05;;
26600;SDS011;14241;49.260;10.496;2022-09-27T04:40:48;6.28;;;1.50;;
26600;SDS011;14241;49.260;10.496;2022-09-27T04:43:14;4.25;;;1.25;;
26600;SDS011;14241;49.260;10.496;2022-09-27T04:45:40;3.92;;;1.30;;
26600;SDS011;14241;49.260;10.496;2022-09-27T04:48:06;4.15;;;1.52;;
26600;SDS011;14241;49.260;10.496;2022-09-27T04:50:32;5.22;;;1.70;;
26600;SDS011;14241;49.260;10.496;2022-09-27T04:52:57;3.72;;;1.30;;
26600;SDS011;14241;49.260;10.496;2022-09-27T04:55:22;3.88;;;1.52;;
26600;SDS011;14241;49.260;10.496;2022-09-27T04:57:48;3.55;;;1.63;;
26600;SDS011;14241;49.260;10.496;2022-09-27T05:00:13;1.88;;;1.20;;
26600;SDS011;14241;49.260;10.496;2022-09-27T05:02:39;3.42;;;1.02;;
26600;SDS011;14241;49.260;10.496;2022-09-27T05:05:04;4.47;;;1.40;;
26600;SDS011;14241;49.260;10.496;2022-09-27T05:07:32;1.77;;;0.98;;
26600;SDS011;14241;49.260;10.496;2022-09-27T05:09:57;2.95;;;1.10;;
26600;SDS011;14241;49.260;10.496;2022-09-27T05:12:22;4.85;;;1.48;;
26600;SDS011;14241;49.260;10.496;2022-09-27T05:14:51;4.05;;;1.15;;
26600;SDS011;14241;49.260;10.496;2022-09-27T05:17:16;1.80;;;1.02;;
26600;SDS011;14241;49.260;10.496;2022-09-27T05:19:42;1.70;;;0.88;;
26600;SDS011;14241;49.260;10.496;2022-09-27T05:22:08;4.85;;;1.02;;
26600;SDS011;14241;49.260;10.496;2022-09-27T05:24:33;3.07;;;1.30;;
26600;SDS011;14241;49.260;10.496;2022-09-27T05:26:59;4.65;;;1.30;;
26600;SDS011;14241;49.260;10.496;2022-09-27T05:29:25;2.28;;;1.00;;
26600;SDS011;14241;49.260;10.496;2022-09-27T05:31:50;2.70;;;1.40;;
26600;SDS011;14241;49.260;10.496;2022-09-27T05:34:15;1.90;;;1.00;;
26600;SDS011;14241;49.260;10.496;2022-09-27T05:36:42;2.28;;;1.20;;
26600;SDS011;14241;49.260;10.496;2022-09-27T05:39:07;3.47;;;1.10;;
26600;SDS011;14241;49.260;10.496;2022-09-27T05:41:32;2.40;;;0.85;;
26600;SDS011;14241;49.260;10.496;2022-09-27T05:43:58;3.40;;;0.80;;
26600;SDS011;14241;49.260;10.496;2022-09-27T05:46:23;2.00;;;0.90;;
26600;SDS011;14241;49.260;10.496;2022-09-27T05:48:48;1.20;;;0.70;;
26600;SDS011;14241;49.260;10.496;2022-09-27T05:51:14;3.45;;;1.00;;
26600;SDS011;14241;49.260;10.496;2022-09-27T05:53:39;1.77;;;0.80;;
26600;SDS011;14241;49.260;10.496;2022-09-27T05:56:04;2.35;;;0.88;;
26600;SDS011;14241;49.260;10.496;2022-09-27T05:58:30;1.80;;;0.70;;
26600;SDS011;14241;49.260;10.496;2022-09-27T06:00:55;1.95;;;0.80;;
26600;SDS011;14241;49.260;10.496;2022-09-27T06:03:20;3.72;;;0.60;;
26600;SDS011;14241;49.260;10.496;2022-09-27T06:05:46;2.97;;;0.93;;
26600;SDS011;14241;49.260;10.496;2022-09-27T06:08:12;3.35;;;0.90;;
26600;SDS011;14241;49.260;10.496;2022-09-27T06:10:38;1.85;;;0.90;;
26600;SDS011;14241;49.260;10.496;2022-09-27T06:13:04;1.45;;;0.68;;
26600;SDS011;14241;49.260;10.496;2022-09-27T06:15:30;2.05;;;0.90;;
26600;SDS011;14241;49.260;10.496;2022-09-27T06:17:56;0.82;;;0.60;;
26600;SDS011;14241;49.260;10.496;2022-09-27T06:20:23;2.15;;;0.98;;
26600;SDS011;14241;49.260;10.496;2022-09-27T06:22:48;3.05;;;1.00;;
26600;SDS011;14241;49.260;10.496;2022-09-27T06:25:13;1.48;;;0.75;;
26600;SDS011;14241;49.260;10.496;2022-09-27T06:27:38;2.25;;;0.90;;
26600;SDS011;14241;49.260;10.496;2022-09-27T06:30:04;1.53;;;0.60;;
26600;SDS011;14241;49.260;10.496;2022-09-27T06:32:29;2.25;;;0.90;;
26600;SDS011;14241;49.260;10.496;2022-09-27T06:34:55;2.70;;;0.90;;
26600;SDS011;14241;49.260;10.496;2022-09-27T06:37:23;3.03;;;1.23;;
26600;SDS011;14241;49.260;10.496;2022-09-27T06:39:49;2.03;;;0.70;;
26600;SDS011;14241;49.260;10.496;2022-09-27T06:42:17;2.45;;;0.80;;
26600;SDS011;14241;49.260;10.496;2022-09-27T06:44:42;1.13;;;0.95;;
26600;SDS011;14241;49.260;10.496;2022-09-27T06:47:08;1.10;;;0.80;;
26600;SDS011;14241;49.260;10.496;2022-09-27T06:49:33;2.10;;;0.85;;
26600;SDS011;14241;49.260;10.496;2022-09-27T06:51:58;1.25;;;0.63;;
26600;SDS011;14241;49.260;10.496;2022-09-27T06:54:24;1.63;;;0.93;;
26600;SDS011;14241;49.260;10.496;2022-09-27T06:56:49;0.90;;;0.75;;
26600;SDS011;14241;49.260;10.496;2022-09-27T06:59:14;3.37;;;0.90;;
26600;SDS011;14241;49.260;10.496;2022-09-27T07:01:58;1.85;;;0.80;;
26600;SDS011;14241;49.260;10.496;2022-09-27T07:04:24;1.38;;;0.70;;
26600;SDS011;14241;49.260;10.496;2022-09-27T07:06:49;2.45;;;0.77;;
26600;SDS011;14241;49.260;10.496;2022-09-27T07:09:14;0.73;;;0.60;;
26600;SDS011;14241;49.260;10.496;2022-09-27T07:11:40;1.02;;;0.65;;
26600;SDS011;14241;49.260;10.496;2022-09-27T07:14:10;1.38;;;0.80;;
26600;SDS011;14241;49.260;10.496;2022-09-27T07:16:36;2.17;;;0.90;;
26600;SDS011;14241;49.260;10.496;2022-09-27T07:19:02;2.40;;;0.70;;
26600;SDS011;14241;49.260;10.496;2022-09-27T07:21:27;0.90;;;0.75;;
26600;SDS011;14241;49.260;10.496;2022-09-27T07:23:52;1.02;;;0.70;;
26600;SDS011;14241;49.260;10.496;2022-09-27T07:26:18;1.30;;;0.70;;
26600;SDS011;14241;49.260;10.496;2022-09-27T07:28:43;1.48;;;0.70;;
26600;SDS011;14241;49.260;10.496;2022-09-27T07:31:10;0.93;;;0.85;;
26600;SDS011;14241;49.260;10.496;2022-09-27T07:33:36;1.48;;;0.85;;
26600;SDS011;14241;49.260;10.496;2022-09-27T07:36:08;0.85;;;0.77;;
26600;SDS011;14241;49.260;10.496;2022-09-27T07:38:34;0.90;;;0.60;;
26600;SDS011;14241;49.260;10.496;2022-09-27T07:41:04;1.90;;;0.77;;
26600;SDS011;14241;49.260;10.496;2022-09-27T07:43:29;1.73;;;0.80;;
26600;SDS011;14241;49.260;10.496;2022-09-27T07:45:55;0.93;;;0.70;;
26600;SDS011;14241;49.260;10.496;2022-09-27T07:48:20;2.03;;;0.70;;
26600;SDS011;14241;49.260;10.496;2022-09-27T07:50:45;2.10;;;0.80;;
26600;SDS011;14241;49.260;10.496;2022-09-27T07:53:11;2.35;;;0.85;;
26600;SDS011;14241;49.260;10.496;2022-09-27T07:55:38;1.83;;;0.80;;
26600;SDS011;14241;49.260;10.496;2022-09-27T07:58:10;1.40;;;0.80;;
26600;SDS011;14241;49.260;10.496;2022-09-27T08:00:36;3.05;;;1.38;;
26600;SDS011;14241;49.260;10.496;2022-09-27T08:03:05;3.92;;;1.10;;
26600;SDS011;14241;49.260;10.496;2022-09-27T08:05:31;2.60;;;1.20;;
26600;SDS011;14241;49.260;10.496;2022-09-27T08:07:57;1.63;;;1.23;;
26600;SDS011;14241;49.260;10.496;2022-09-27T08:10:22;2.30;;;1.05;;
26600;SDS011;14241;49.260;10.496;2022-09-27T08:12:51;1.30;;;0.80;;
26600;SDS011;14241;49.260;10.496;2022-09-27T08:15:16;2.30;;;0.70;;
26600;SDS011;14241;49.260;10.496;2022-09-27T08:17:42;1.90;;;1.07;;
26600;SDS011;14241;49.260;10.496;2022-09-27T08:20:07;2.40;;;0.80;;
26600;SDS011;14241;49.260;10.496;2022-09-27T08:22:32;1.90;;;0.80;;
26600;SDS011;14241;49.260;10.496;2022-09-27T08:24:57;1.35;;;0.88;;
26600;SDS011;14241;49.260;10.496;2022-09-27T08:27:23;2.15;;;0.75;;
26600;SDS011;14241;49.260;10.496;2022-09-27T08:29:48;0.73;;;0.57;;
26600;SDS011;14241;49.260;10.496;2022-09-27T08:32:15;1.80;;;0.70;;
26600;SDS011;14241;49.260;10.496;2022-09-27T08:34:40;1.67;;;0.80;;
26600;SDS011;14241;49.260;10.496;2022-09-27T08:37:05;1.08;;;0.90;;
26600;SDS011;14241;49.260;10.496;2022-09-27T08:39:31;2.08;;;0.70;;
26600;SDS011;14241;49.260;10.496;2022-09-27T08:42:13;1.65;;;0.80;;
26600;SDS011;14241;49.260;10.496;2022-09-27T08:47:18;2.60;;;1.17;;
26600;SDS011;14241;49.260;10.496;2022-09-27T08:50:18;2.25;;;0.98;;
26600;SDS011;14241;49.260;10.496;2022-09-27T08:52:38;3.33;;;0.80;;
26600;SDS011;14241;49.260;10.496;2022-09-27T08:55:19;1.40;;;0.90;;
26600;SDS011;14241;49.260;10.496;2022-09-27T08:57:48;1.33;;;0.80;;
26600;SDS011;14241;49.260;10.496;2022-09-27T09:00:14;2.92;;;1.00;;
26600;SDS011;14241;49.260;10.496;2022-09-27T09:02:40;1.83;;;0.80;;
26600;SDS011;14241;49.260;10.496;2022-09-27T09:05:10;2.00;;;0.98;;
26600;SDS011;14241;49.260;10.496;2022-09-27T09:12:44;1.02;;;0.70;;
26600;SDS011;14241;49.260;10.496;2022-09-27T09:17:40;1.83;;;0.80;;
26600;SDS011;14241;49.260;10.496;2022-09-27T09:27:51;0.63;;;0.57;;
26600;SDS011;14241;49.260;10.496;2022-09-27T09:30:19;0.63;;;0.60;;
26600;SDS011;14241;49.260;10.496;2022-09-27T09:32:49;1.23;;;0.63;;
26600;SDS011;14241;49.260;10.496;2022-09-27T09:35:22;0.95;;;0.60;;
26600;SDS011;14241;49.260;10.496;2022-09-27T09:37:53;0.50;;;0.50;;
26600;SDS011;14241;49.260;10.496;2022-09-27T09:43:01;1.20;;;0.63;;
26600;SDS011;14241;49.260;10.496;2022-09-27T09:45:32;1.75;;;0.80;;
26600;SDS011;14241;49.260;10.496;2022-09-27T09:50:27;2.35;;;0.70;;
26600;SDS011;14241;49.260;10.496;2022-09-27T09:52:55;1.10;;;0.70;;
26600;SDS011;14241;49.260;10.496;2022-09-27T09:55:24;0.63;;;0.63;;
26600;SDS011;14241;49.260;10.496;2022-09-27T10:00:27;0.52;;;0.50;;
26600;SDS011;14241;49.260;10.496;2022-09-27T10:02:57;1.98;;;0.90;;
26600;SDS011;14241;49.260;10.496;2022-09-27T10:05:24;1.33;;;0.80;;
26600;SDS011;14241;49.260;10.496;2022-09-27T10:07:50;1.10;;;0.77;;
26600;SDS011;14241;49.260;10.496;2022-09-27T10:10:16;0.73;;;0.55;;
26600;SDS011;14241;49.260;10.496;2022-09-27T10:12:43;0.80;;;0.60;;
26600;SDS011;14241;49.260;10.496;2022-09-27T10:15:12;1.38;;;0.70;;
26600;SDS011;14241;49.260;10.496;2022-09-27T10:17:39;1.20;;;0.70;;
26600;SDS011;14241;49.260;10.496;2022-09-27T10:20:05;0.60;;;0.60;;
26600;SDS011;14241;49.260;10.496;2022-09-27T10:22:39;1.90;;;0.68;;
26600;SDS011;14241;49.260;10.496;2022-09-27T10:25:07;1.13;;;0.80;;
26600;SDS011;14241;49.260;10.496;2022-09-27T10:27:45;0.40;;;0.40;;
26600;SDS011;14241;49.260;10.496;2022-09-27T10:30:30;1.92;;;0.70;;
26600;SDS011;14241;49.260;10.496;2022-09-27T10:33:04;1.17;;;0.68;;
26600;SDS011;14241;49.260;10.496;2022-09-27T10:35:34;1.95;;;0.50;;
26600;SDS011;14241;49.260;10.496;2022-09-27T10:40:46;1.83;;;0.60;;
26600;SDS011;14241;49.260;10.496;2022-09-27T10:43:25;2.85;;;0.70;;
26600;SDS011;14241;49.260;10.496;2022-09-27T10:45:58;0.60;;;0.60;;
26600;SDS011;14241;49.260;10.496;2022-09-27T10:48:24;0.93;;;0.80;;
26600;SDS011;14241;49.260;10.496;2022-09-27T10:51:50;2.50;;;0.70;;
26600;SDS011;14241;49.260;10.496;2022-09-27T10:53:44;1.95;;;0.80;;
26600;SDS011;14241;49.260;10.496;2022-09-27T10:56:19;1.27;;;0.93;;
26600;SDS011;14241;49.260;10.496;2022-09-27T10:58:45;0.95;;;0.88;;
26600;SDS011;14241;49.260;10.496;2022-09-27T11:01:10;1.90;;;0.77;;
26600;SDS011;14241;49.260;10.496;2022-09-27T11:03:44;1.13;;;0.60;;
26600;SDS011;14241;49.260;10.496;2022-09-27T11:08:49;0.60;;;0.60;;
26600;SDS011;14241;49.260;10.496;2022-09-27T11:11:16;1.35;;;0.73;;
26600;SDS011;14241;49.260;10.496;2022-09-27T11:13:58;1.08;;;0.70;;
26600;SDS011;14241;49.260;10.496;2022-09-27T11:22:08;1.13;;;1.00;;
26600;SDS011;14241;49.260;10.496;2022-09-27T11:35:15;2.38;;;1.40;;
26600;SDS011;14241;49.260;10.496;2022-09-27T11:42:58;2.97;;;1.58;;
26600;SDS011;14241;49.260;10.496;2022-09-27T11:48:13;2.13;;;1.20;;
26600;SDS011;14241;49.260;10.496;2022-09-27T11:50:53;3.38;;;1.30;;
26600;SDS011;14241;49.260;10.496;2022-09-27T11:53:55;3.90;;;1.60;;
26600;SDS011;14241;49.260;10.496;2022-09-27T11:56:34;1.63;;;1.10;;
26600;SDS011;14241;49.260;10.496;2022-09-27T12:09:39;1.80;;;0.93;;
26600;SDS011;14241;49.260;10.496;2022-09-27T12:12:15;2.45;;;0.73;;
26600;SDS011;14241;49.260;10.496;2022-09-27T12:14:42;1.75;;;0.82;;
26600;SDS011;14241;49.260;10.496;2022-09-27T12:17:14;1.23;;;0.85;;
26600;SDS011;14241;49.260;10.496;2022-09-27T12:19:42;1.33;;;0.85;;
26600;SDS011;14241;49.260;10.496;2022-09-27T12:22:12;0.75;;;0.60;;
26600;SDS011;14241;49.260;10.496;2022-09-27T12:24:39;1.92;;;0.88;;
26600;SDS011;14241;49.260;10.496;2022-09-27T12:27:09;0.93;;;0.77;;
26600;SDS011;14241;49.260;10.496;2022-09-27T12:29:38;3.55;;;1.05;;
26600;SDS011;14241;49.260;10.496;2022-09-27T12:37:33;2.05;;;1.17;;
26600;SDS011;14241;49.260;10.496;2022-09-27T12:42:59;2.90;;;1.20;;
26600;SDS011;14241;49.260;10.496;2022-09-27T12:45:16;2.72;;;1.30;;
26600;SDS011;14241;49.260;10.496;2022-09-27T12:50:20;2.70;;;1.20;;
26600;SDS011;14241;49.260;10.496;2022-09-27T12:52:50;3.63;;;1.38;;
26600;SDS011;14241;49.260;10.496;2022-09-27T13:00:56;2.38;;;1.20;;
26600;SDS011;14241;49.260;10.496;2022-09-27T13:13:20;0.87;;;0.73;;
26600;SDS011;14241;49.260;10.496;2022-09-27T13:15:46;1.92;;;1.00;;
26600;SDS011;14241;49.260;10.496;2022-09-27T13:20:52;2.72;;;0.93;;
26600;SDS011;14241;49.260;10.496;2022-09-27T13:25:51;2.50;;;0.83;;
26600;SDS011;14241;49.260;10.496;2022-09-27T13:31:14;1.95;;;1.00;;
26600;SDS011;14241;49.260;10.496;2022-09-27T13:33:47;3.50;;;0.60;;
26600;SDS011;14241;49.260;10.496;2022-09-27T13:38:56;1.85;;;0.50;;
26600;SDS011;14241;49.260;10.496;2022-09-27T13:41:51;0.80;;;0.40;;
26600;SDS011;14241;49.260;10.496;2022-09-27T13:46:49;1.90;;;0.40;;
26600;SDS011;14241;49.260;10.496;2022-09-27T13:49:27;0.70;;;0.40;;
26600;SDS011;14241;49.260;10.496;2022-09-27T13:51:55;0.43;;;0.40;;
26600;SDS011;14241;49.260;10.496;2022-09-27T13:56:59;1.45;;;0.63;;
26600;SDS011;14241;49.260;10.496;2022-09-27T13:59:25;0.55;;;0.40;;
26600;SDS011;14241;49.260;10.496;2022-09-27T14:02:00;0.75;;;0.73;;
26600;SDS011;14241;49.260;10.496;2022-09-27T14:04:29;1.17;;;0.63;;
26600;SDS011;14241;49.260;10.496;2022-09-27T14:06:59;1.10;;;0.50;;
26600;SDS011;14241;49.260;10.496;2022-09-27T14:09:29;2.05;;;0.50;;
26600;SDS011;14241;49.260;10.496;2022-09-27T14:11:57;1.58;;;0.82;;
26600;SDS011;14241;49.260;10.496;2022-09-27T14:14:25;2.08;;;0.50;;
26600;SDS011;14241;49.260;10.496;2022-09-27T14:16:51;3.13;;;0.40;;
26600;SDS011;14241;49.260;10.496;2022-09-27T14:19:19;1.45;;;0.68;;
26600;SDS011;14241;49.260;10.496;2022-09-27T14:21:54;2.33;;;0.50;;
26600;SDS011;14241;49.260;10.496;2022-09-27T14:24:31;1.30;;;0.40;;
26600;SDS011;14241;49.260;10.496;2022-09-27T14:27:10;1.35;;;0.70;;
26600;SDS011;14241;49.260;10.496;2022-09-27T14:29:40;0.40;;;0.40;;
26600;SDS011;14241;49.260;10.496;2022-09-27T14:32:13;0.32;;;0.30;;
26600;SDS011;14241;49.260;10.496;2022-09-27T14:34:40;4.53;;;0.70;;
26600;SDS011;14241;49.260;10.496;2022-09-27T14:37:12;0.52;;;0.50;;
26600;SDS011;14241;49.260;10.496;2022-09-27T14:39:58;0.65;;;0.50;;
26600;SDS011;14241;49.260;10.496;2022-09-27T14:42:25;1.70;;;0.50;;
26600;SDS011;14241;49.260;10.496;2022-09-27T14:44:51;1.13;;;0.50;;
26600;SDS011;14241;49.260;10.496;2022-09-27T14:49:49;0.45;;;0.40;;
26600;SDS011;14241;49.260;10.496;2022-09-27T14:52:16;0.55;;;0.50;;
26600;SDS011;14241;49.260;10.496;2022-09-27T14:54:42;1.95;;;0.43;;
26600;SDS011;14241;49.260;10.496;2022-09-27T14:57:08;0.93;;;0.43;;
26600;SDS011;14241;49.260;10.496;2022-09-27T14:59:34;1.80;;;0.60;;
26600;SDS011;14241;49.260;10.496;2022-09-27T15:02:00;0.55;;;0.40;;
26600;SDS011;14241;49.260;10.496;2022-09-27T15:04:27;4.85;;;0.80;;
26600;SDS011;14241;49.260;10.496;2022-09-27T15:06:54;0.40;;;0.40;;
26600;SDS011;14241;49.260;10.496;2022-09-27T15:09:20;3.85;;;0.60;;
26600;SDS011;14241;49.260;10.496;2022-09-27T15:11:52;1.02;;;0.80;;
26600;SDS011;14241;49.260;10.496;2022-09-27T15:14:18;0.52;;;0.40;;
26600;SDS011;14241;49.260;10.496;2022-09-27T15:16:45;0.80;;;0.50;;
26600;SDS011;14241;49.260;10.496;2022-09-27T15:19:25;1.55;;;0.45;;
26600;SDS011;14241;49.260;10.496;2022-09-27T15:21:51;0.75;;;0.50;;
26600;SDS011;14241;49.260;10.496;2022-09-27T15:27:00;0.95;;;0.40;;
26600;SDS011;14241;49.260;10.496;2022-09-27T15:29:26;1.73;;;0.45;;
26600;SDS011;14241;49.260;10.496;2022-09-27T15:32:04;0.68;;;0.43;;
26600;SDS011;14241;49.260;10.496;2022-09-27T15:34:31;1.40;;;0.35;;
26600;SDS011;14241;49.260;10.496;2022-09-27T15:36:58;0.80;;;0.52;;
26600;SDS011;14241;49.260;10.496;2022-09-27T15:39:37;0.50;;;0.43;;
26600;SDS011;14241;49.260;10.496;2022-09-27T15:42:03;0.90;;;0.50;;
26600;SDS011;14241;49.260;10.496;2022-09-27T15:49:51;0.95;;;0.50;;
26600;SDS011;14241;49.260;10.496;2022-09-27T15:52:38;0.57;;;0.47;;
26600;SDS011;14241;49.260;10.496;2022-09-27T15:55:02;0.95;;;0.63;;
26600;SDS011;14241;49.260;10.496;2022-09-27T15:57:27;2.45;;;0.50;;
26600;SDS011;14241;49.260;10.496;2022-09-27T15:59:53;1.23;;;0.70;;
26600;SDS011;14241;49.260;10.496;2022-09-27T16:02:18;1.83;;;0.60;;
26600;SDS011;14241;49.260;10.496;2022-09-27T16:04:45;1.27;;;0.60;;
26600;SDS011;14241;49.260;10.496;2022-09-27T16:07:10;2.97;;;0.60;;
26600;SDS011;14241;49.260;10.496;2022-09-27T16:09:37;0.40;;;0.40;;
26600;SDS011;14241;49.260;10.496;2022-09-27T16:12:02;0.88;;;0.40;;
26600;SDS011;14241;49.260;10.496;2022-09-27T16:14:27;0.38;;;0.38;;
26600;SDS011;14241;49.260;10.496;2022-09-27T16:16:53;0.55;;;0.30;;
26600;SDS011;14241;49.260;10.496;2022-09-27T16:19:20;0.73;;;0.40;;
26600;SDS011;14241;49.260;10.496;2022-09-27T16:21:45;0.57;;;0.50;;
26600;SDS011;14241;49.260;10.496;2022-09-27T16:24:12;0.40;;;0.40;;
26600;SDS011;14241;49.260;10.496;2022-09-27T16:26:37;1.83;;;0.43;;
26600;SDS011;14241;49.260;10.496;2022-09-27T16:29:03;1.73;;;0.77;;
26600;SDS011;14241;49.260;10.496;2022-09-27T16:31:28;0.57;;;0.40;;
26600;SDS011;14241;49.260;10.496;2022-09-27T16:33:54;2.05;;;0.88;;
26600;SDS011;14241;49.260;10.496;2022-09-27T16:36:19;1.58;;;0.73;;
26600;SDS011;14241;49.260;10.496;2022-09-27T16:38:51;1.92;;;0.50;;
26600;SDS011;14241;49.260;10.496;2022-09-27T16:41:17;0.70;;;0.40;;
26600;SDS011;14241;49.260;10.496;2022-09-27T16:43:42;2.17;;;0.60;;
26600;SDS011;14241;49.260;10.496;2022-09-27T16:46:09;1.65;;;0.60;;
26600;SDS011;14241;49.260;10.496;2022-09-27T16:48:35;2.15;;;0.60;;
26600;SDS011;14241;49.260;10.496;2022-09-27T16:51:05;3.22;;;0.60;;
26600;SDS011;14241;49.260;10.496;2022-09-27T16:53:48;1.45;;;0.88;;
26600;SDS011;14241;49.260;10.496;2022-09-27T16:56:14;1.87;;;0.60;;
26600;SDS011;14241;49.260;10.496;2022-09-27T16:58:39;0.90;;;0.60;;
26600;SDS011;14241;49.260;10.496;2022-09-27T17:01:04;1.55;;;0.50;;
26600;SDS011;14241;49.260;10.496;2022-09-27T17:03:31;3.45;;;0.50;;
26600;SDS011;14241;49.260;10.496;2022-09-27T17:05:59;0.75;;;0.40;;
26600;SDS011;14241;49.260;10.496;2022-09-27T17:08:25;1.55;;;0.68;;
26600;SDS011;14241;49.260;10.496;2022-09-27T17:10:50;1.25;;;0.50;;
26600;SDS011;14241;49.260;10.496;2022-09-27T17:13:15;0.70;;;0.60;;
26600;SDS011;14241;49.260;10.496;2022-09-27T17:15:41;1.42;;;0.70;;
26600;SDS011;14241;49.260;10.496;2022-09-27T17:18:06;1.45;;;0.63;;
26600;SDS011;14241;49.260;10.496;2022-09-27T17:20:32;2.22;;;0.50;;
26600;SDS011;14241;49.260;10.496;2022-09-27T17:22:57;2.17;;;0.70;;